Time;durP1;ratioP1;P1;durP2;ratioP2;P2;SDS_P1;SDS_P2;PMS_P1;PMS_P2;Temp;Humidity;BMP_temperature;BMP_pressure;BME280_temperature;BME280_humidity;BME280_pressure;Samples;Min_cycle;Max_cycle;Signal;HPM_P1;HPM_P2
2023/06/01 00:01:49;;;;;;;5.10;4.65;;;;;;;17.52;99.95;98305.97;5074349;28;20573;-63
2023/06/01 00:04:14;;;;;;;5.28;4.63;;;;;;;17.71;99.28;98329.34;5074616;28;20631;-63
2023/06/01 00:06:40;;;;;;;6.25;4.32;;;;;;;17.23;98.70;98237.38;5074644;28;20181;-63
2023/06/01 00:09:07;;;;;;;5.47;4.80;;;;;;;17.41;98.09;98246.88;5074646;28;20195;-63
2023/06/01 00:11:32;;;;;;;5.72;5.20;;;;;;;17.73;97.01;98272.47;5074571;28;20669;-63
2023/06/01 00:13:58;;;;;;;5.53;4.70;;;;;;;17.77;97.16;98287.72;5074552;28;20165;-63
2023/06/01 00:16:23;;;;;;;7.03;5.00;;;;;;;17.89;97.39;98315.28;5074474;28;20709;-63
2023/06/01 00:18:51;;;;;;;5.20;4.70;;;;;;;17.48;98.27;98274.06;5074415;28;20173;-63
2023/06/01 00:21:16;;;;;;;4.32;3.92;;;;;;;17.58;99.15;98294.91;5074341;28;20646;-63
2023/06/01 00:23:42;;;;;;;7.65;4.95;;;;;;;17.58;99.17;98308.00;5074321;28;20173;-63
2023/06/01 00:26:08;;;;;;;5.15;4.60;;;;;;;17.02;99.57;98229.03;5074225;28;20648;-63
2023/06/01 00:28:34;;;;;;;5.53;4.43;;;;;;;17.39;99.68;98288.06;5074280;28;20173;-63
2023/06/01 00:30:59;;;;;;;9.32;5.28;;;;;;;17.06;100.00;98259.09;5074188;28;20259;-63
2023/06/01 00:33:25;;;;;;;5.80;4.85;;;;;;;17.19;100.00;98285.72;5074090;28;20259;-63
2023/06/01 00:35:51;;;;;;;5.22;4.82;;;;;;;17.08;100.00;98291.16;5073845;28;20173;-63
2023/06/01 00:38:16;;;;;;;6.70;4.85;;;;;;;16.94;100.00;98257.69;5073371;28;20236;-63
2023/06/01 00:40:43;;;;;;;5.05;4.47;;;;;;;16.92;100.00;98246.56;5074037;28;20176;-63
2023/06/01 00:43:09;;;;;;;6.47;4.78;;;;;;;17.04;100.00;98263.66;5073939;28;20206;-63
2023/06/01 00:45:34;;;;;;;6.82;4.85;;;;;;;16.71;100.00;98225.09;5073883;28;20631;-63
2023/06/01 00:48:00;;;;;;;5.78;5.05;;;;;;;17.20;100.00;98295.22;5073841;28;20246;-63
2023/06/01 00:50:25;;;;;;;5.35;4.85;;;;;;;16.70;100.00;98233.91;5073832;28;20169;-63
2023/06/01 00:52:51;;;;;;;6.32;4.97;;;;;;;16.70;100.00;98233.91;5073768;28;20188;-63
2023/06/01 00:55:20;;;;;;;5.32;4.82;;;;;;;16.61;100.00;98238.22;5073704;28;20176;-63
2023/06/01 00:57:46;;;;;;;7.65;5.13;;;;;;;16.94;100.00;98305.56;5073660;28;20172;-63
2023/06/01 01:00:12;;;;;;;6.38;4.63;;;;;;;16.33;100.00;98218.28;5073592;28;20225;-63
2023/06/01 01:02:39;;;;;;;8.98;5.10;;;;;;;16.63;100.00;98279.88;5073611;28;20188;-63
2023/06/01 01:05:12;;;;;;;6.43;4.53;;;;;;;16.48;100.00;98276.94;5073413;28;20205;-63
2023/06/01 01:07:37;;;;;;;5.28;4.15;;;;;;;16.79;100.00;98311.44;5073589;28;20260;-63
2023/06/01 01:10:17;;;;;;;7.65;4.70;;;;;;;16.73;100.00;98319.84;5073450;28;20615;-63
2023/06/01 01:12:49;;;;;;;4.97;4.43;;;;;;;16.14;100.00;98220.16;5073466;28;20176;-63
2023/06/01 01:15:25;;;;;;;5.47;4.97;;;;;;;16.61;100.00;98302.72;5073645;28;20631;-63
2023/06/01 01:18:01;;;;;;;6.97;5.45;;;;;;;16.61;100.00;98313.19;5070711;28;20570;-63
2023/06/01 01:20:33;;;;;;;7.72;4.88;;;;;;;16.34;100.00;98266.94;5070844;28;20192;-63
2023/06/01 01:23:04;;;;;;;5.47;4.63;;;;;;;16.56;100.00;98307.56;5070817;28;20676;-63
2023/06/01 01:26:07;;;;;;;6.45;4.65;;;;;;;16.52;100.00;98314.03;5070587;28;20212;-63
2023/06/01 01:28:53;;;;;;;7.30;4.55;;;;;;;16.13;100.00;98242.00;5070676;28;20563;-63
2023/06/01 01:31:23;;;;;;;8.45;4.90;;;;;;;16.06;100.00;98220.88;5070591;28;20185;-63
2023/06/01 01:33:51;;;;;;;5.90;5.15;;;;;;;16.43;100.00;98273.09;5070535;28;20218;-62
2023/06/01 01:36:16;;;;;;;4.60;4.20;;;;;;;16.26;100.00;98232.06;5070471;28;20188;-63
2023/06/01 01:38:42;;;;;;;6.50;4.20;;;;;;;16.50;100.00;98271.56;5050285;28;20194;-63
2023/06/01 01:41:07;;;;;;;5.15;4.65;;;;;;;16.40;100.00;98276.00;5050392;28;20246;-63
2023/06/01 01:43:34;;;;;;;4.97;4.10;;;;;;;16.41;100.00;98269.81;5049833;28;20192;-63
2023/06/01 01:46:25;;;;;;;5.18;4.68;;;;;;;16.56;100.00;98318.00;5050226;28;20205;-63
2023/06/01 01:48:50;;;;;;;6.20;4.32;;;;;;;16.62;100.00;98315.63;5060193;28;20193;-63
2023/06/01 01:51:22;;;;;;;5.40;4.63;;;;;;;16.56;100.00;98310.16;5070157;28;20183;-63
2023/06/01 01:53:50;;;;;;;6.50;4.38;;;;;;;16.50;100.00;98306.34;5070165;28;20185;-63
2023/06/01 01:56:17;;;;;;;6.47;4.75;;;;;;;16.48;100.00;98329.16;5070117;28;20188;-63
2023/06/01 01:58:44;;;;;;;5.18;4.45;;;;;;;16.15;100.00;98279.25;5070280;28;20195;-63
2023/06/01 02:01:11;;;;;;;6.28;4.80;;;;;;;15.87;100.00;98241.81;5069860;28;20200;-63
2023/06/01 02:03:36;;;;;;;5.65;4.97;;;;;;;15.87;100.00;98241.00;5070008;28;20189;-63
2023/06/01 02:06:02;;;;;;;6.28;4.32;;;;;;;16.10;100.00;98271.00;5069948;28;20203;-63
2023/06/01 02:08:27;;;;;;;5.70;4.60;;;;;;;16.44;100.00;98316.56;5069960;28;20181;-63
2023/06/01 02:10:52;;;;;;;5.45;4.75;;;;;;;16.25;100.00;98280.00;5071924;28;20268;-63
2023/06/01 02:13:18;;;;;;;7.03;4.97;;;;;;;16.44;100.00;98295.66;5089857;28;20192;-63
2023/06/01 02:15:43;;;;;;;8.02;5.22;;;;;;;16.25;100.00;98280.00;5090051;28;20187;-63
2023/06/01 02:18:09;;;;;;;5.28;4.78;;;;;;;16.32;100.00;98308.03;5090002;28;20276;-63
2023/06/01 02:20:34;;;;;;;5.65;4.55;;;;;;;15.87;100.00;98243.63;5090018;28;20556;-63
2023/06/01 02:23:00;;;;;;;5.03;4.45;;;;;;;16.18;100.00;98290.22;5089940;28;20199;-63
2023/06/01 02:25:25;;;;;;;5.22;4.72;;;;;;;16.37;100.00;98321.47;5089779;28;20208;-63
2023/06/01 02:27:50;;;;;;;6.90;4.55;;;;;;;16.19;100.00;98291.03;5089823;28;20279;-63
2023/06/01 02:30:16;;;;;;;7.88;3.88;;;;;;;16.43;100.00;98331.38;5089854;28;20182;-63
2023/06/01 02:32:44;;;;;;;4.97;4.47;;;;;;;16.31;100.00;98322.06;5089775;28;20195;-63
2023/06/01 02:35:10;;;;;;;5.35;3.80;;;;;;;16.06;100.00;98267.88;5089783;28;20263;-63
2023/06/01 02:37:36;;;;;;;8.80;4.57;;;;;;;16.20;100.00;98298.72;5089791;28;20267;-63
2023/06/01 02:40:01;;;;;;;8.30;4.65;;;;;;;15.91;100.00;98245.78;5089696;28;20350;-63
2023/06/01 02:42:27;;;;;;;6.63;4.43;;;;;;;15.92;100.00;98251.84;5089978;28;20183;-63
2023/06/01 02:44:52;;;;;;;11.85;4.53;;;;;;;16.35;100.00;98323.41;5075994;28;20208;-63
2023/06/01 02:47:18;;;;;;;5.38;4.50;;;;;;;16.11;100.00;98281.31;5071859;28;20184;-63
2023/06/01 02:49:43;;;;;;;7.80;3.97;;;;;;;16.52;100.00;98351.44;5071822;28;20588;-63
2023/06/01 02:52:08;;;;;;;8.90;4.70;;;;;;;15.92;100.00;98249.25;5071805;28;20177;-63
2023/06/01 02:54:34;;;;;;;4.72;4.32;;;;;;;16.08;100.00;98294.66;5071789;28;20185;-63
2023/06/01 02:56:59;;;;;;;4.57;4.22;;;;;;;16.25;100.00;98313.94;5074205;28;20267;-63
2023/06/01 02:59:25;;;;;;;4.85;4.38;;;;;;;16.06;100.00;98290.53;5075954;28;20259;-63
2023/06/01 03:01:50;;;;;;;6.15;4.65;;;;;;;16.11;100.00;98293.53;5076074;28;20543;-63
2023/06/01 03:04:17;;;;;;;4.85;4.18;;;;;;;16.40;100.00;98328.25;5075851;28;20528;-63
2023/06/01 03:06:43;;;;;;;6.10;4.75;;;;;;;16.36;100.00;98325.06;5075702;28;20216;-63
2023/06/01 03:09:12;;;;;;;7.38;4.43;;;;;;;16.16;100.00;98281.69;5075812;28;20172;-63
2023/06/01 03:11:41;;;;;;;7.00;5.25;;;;;;;16.42;100.00;98323.69;5075751;28;20647;-62
2023/06/01 03:14:06;;;;;;;4.90;4.45;;;;;;;16.35;100.00;98325.19;5075620;28;20196;-63
2023/06/01 03:16:32;;;;;;;4.43;4.03;;;;;;;16.12;100.00;98279.50;5075646;28;20643;-63
2023/06/01 03:18:58;;;;;;;6.30;4.38;;;;;;;16.12;100.00;98285.56;5075562;28;20603;-63
2023/06/01 03:21:24;;;;;;;7.03;4.30;;;;;;;16.17;100.00;98295.56;5093158;28;20283;-63
2023/06/01 03:23:50;;;;;;;5.10;4.53;;;;;;;16.37;100.00;98333.69;5093238;28;20294;-63
2023/06/01 03:26:17;;;;;;;6.40;4.30;;;;;;;16.11;100.00;98286.53;5093215;28;20220;-63
2023/06/01 03:28:42;;;;;;;5.35;4.60;;;;;;;16.45;100.00;98341.69;5093157;28;20172;-63
2023/06/01 03:31:11;;;;;;;8.77;3.90;;;;;;;16.26;100.00;98295.53;5093404;28;20283;-63
2023/06/01 03:33:37;;;;;;;4.93;4.20;;;;;;;16.05;100.00;98263.63;5093112;28;20180;-63
2023/06/01 03:36:03;;;;;;;5.72;4.63;;;;;;;16.40;100.00;98323.84;5093062;28;20195;-63
2023/06/01 03:38:28;;;;;;;5.20;4.47;;;;;;;16.57;100.00;98336.13;5093016;28;20698;-63
2023/06/01 03:40:54;;;;;;;8.88;4.68;;;;;;;16.09;100.00;98259.75;5092915;28;20215;-63
2023/06/01 03:43:20;;;;;;;8.13;4.53;;;;;;;16.40;100.00;98296.91;5092930;28;20207;-63
2023/06/01 03:45:45;;;;;;;6.10;4.35;;;;;;;16.43;100.00;98296.59;5092750;28;20212;-63
2023/06/01 03:48:11;;;;;;;5.47;4.10;;;;;;;16.31;100.00;98275.06;5092770;28;20257;-63
2023/06/01 03:50:36;;;;;;;5.28;4.28;;;;;;;16.49;100.00;98293.44;5092744;28;20187;-63
2023/06/01 03:53:02;;;;;;;7.80;4.35;;;;;;;16.76;100.00;98338.69;5092642;28;20194;-63
2023/06/01 03:55:29;;;;;;;5.47;3.80;;;;;;;16.45;100.00;98276.41;5092805;28;20187;-63
2023/06/01 03:57:55;;;;;;;5.18;4.22;;;;;;;16.86;100.00;98313.28;5090186;28;20230;-62
2023/06/01 04:00:20;;;;;;;5.10;4.60;;;;;;;17.16;100.00;98335.69;5074631;28;20275;-62
2023/06/01 04:02:54;;;;;;;6.50;5.13;;;;;;;17.20;100.00;98355.34;5074771;28;20172;-62
2023/06/01 04:05:21;;;;;;;7.50;4.60;;;;;;;17.08;100.00;98327.78;5074645;28;20203;-62
2023/06/01 04:07:49;;;;;;;5.70;4.30;;;;;;;17.19;100.00;98346.66;5074148;28;20168;-62
2023/06/01 04:10:16;;;;;;;5.63;4.07;;;;;;;16.83;99.84;98273.56;5074503;28;20176;-62
2023/06/01 04:12:45;;;;;;;6.38;4.13;;;;;;;17.11;99.89;98319.63;5074475;28;20176;-62
2023/06/01 04:15:12;;;;;;;5.93;4.40;;;;;;;17.08;99.29;98299.81;5074198;28;20654;-62
2023/06/01 04:17:38;;;;;;;11.32;4.93;;;;;;;17.07;98.75;98284.28;5074497;28;20177;-63
2023/06/01 04:20:09;;;;;;;5.10;4.60;;;;;;;17.42;98.24;98342.69;5074417;28;20173;-62
2023/06/01 04:22:37;;;;;;;5.65;4.15;;;;;;;17.22;98.41;98298.47;5074152;28;20579;-62
2023/06/01 04:25:17;;;;;;;5.25;4.10;;;;;;;17.52;98.57;98334.75;5073932;28;20204;-63
2023/06/01 04:27:48;;;;;;;4.47;4.07;;;;;;;17.46;97.57;98309.19;5073969;28;20618;-62
2023/06/01 04:30:15;;;;;;;5.10;4.60;;;;;;;17.60;96.81;98324.38;5074246;28;20684;-62
2023/06/01 04:32:43;;;;;;;6.03;4.22;;;;;;;17.63;96.58;98339.78;5074189;28;20238;-62
2023/06/01 04:35:09;;;;;;;5.97;4.38;;;;;;;17.82;95.24;98363.16;5074144;28;20180;-63
2023/06/01 04:37:37;;;;;;;7.38;4.43;;;;;;;17.58;94.59;98311.44;5074155;28;20615;-63
2023/06/01 04:40:07;;;;;;;4.75;4.28;;;;;;;17.74;95.09;98329.91;5074079;28;20177;-62
2023/06/01 04:42:48;;;;;;;5.82;4.03;;;;;;;18.09;94.16;98376.97;5074015;28;20172;-62
2023/06/01 04:45:15;;;;;;;4.70;4.30;;;;;;;18.18;93.32;98372.63;5074237;28;20204;-62
2023/06/01 04:47:44;;;;;;;6.80;4.50;;;;;;;18.29;92.58;98369.72;5073878;28;20628;-62
2023/06/01 04:50:11;;;;;;;5.72;4.50;;;;;;;17.97;92.29;98291.78;5073881;28;20207;-62
2023/06/01 04:52:37;;;;;;;4.78;4.30;;;;;;;18.14;90.57;98295.31;5073840;28;20177;-63
2023/06/01 04:55:04;;;;;;;7.22;5.05;;;;;;;18.24;89.66;98311.75;5073802;28;20184;-62
2023/06/01 04:57:32;;;;;;;6.05;4.65;;;;;;;18.52;90.33;98347.28;5091381;28;20556;-63
2023/06/01 04:59:58;;;;;;;4.97;4.03;;;;;;;18.73;89.06;98376.56;5091222;28;20195;-63
2023/06/01 05:02:25;;;;;;;6.15;4.38;;;;;;;18.69;87.84;98346.41;5071017;28;20176;-63
2023/06/01 05:04:51;;;;;;;5.90;3.75;;;;;;;18.42;87.54;98302.06;5071031;28;20212;-62
2023/06/01 05:07:16;;;;;;;6.20;4.25;;;;;;;18.92;88.28;98384.19;5071051;28;20564;-63
2023/06/01 05:09:42;;;;;;;4.57;4.18;;;;;;;18.92;86.16;98376.31;5071308;28;20203;-62
2023/06/01 05:12:07;;;;;;;5.97;4.30;;;;;;;18.81;87.97;98340.72;5090953;28;20542;-62
2023/06/01 05:14:33;;;;;;;5.05;4.55;;;;;;;18.81;88.24;98360.88;5091164;28;20240;-63
2023/06/01 05:16:58;;;;;;;4.38;3.97;;;;;;;19.12;90.36;98390.84;5090976;28;20308;-62
2023/06/01 05:19:24;;;;;;;11.57;4.10;;;;;;;18.94;89.01;98340.31;5090447;28;20211;-62
2023/06/01 05:21:49;;;;;;;4.18;3.83;;;;;;;19.15;87.74;98359.03;5090897;28;20183;-62
2023/06/01 05:24:15;;;;;;;6.30;4.20;;;;;;;18.81;87.84;98305.81;5070445;28;20281;-63
2023/06/01 05:26:40;;;;;;;6.22;3.90;;;;;;;19.36;87.75;98378.63;5070570;28;20215;-64
2023/06/01 05:29:06;;;;;;;5.05;4.25;;;;;;;19.48;86.43;98384.41;5070505;28;20192;-63
2023/06/01 05:31:31;;;;;;;4.80;3.63;;;;;;;19.61;84.75;98371.63;5070570;28;20188;-64
2023/06/01 05:33:56;;;;;;;4.57;3.72;;;;;;;19.74;83.56;98383.31;5070490;28;20571;-63
2023/06/01 05:36:22;;;;;;;4.40;4.00;;;;;;;19.61;83.15;98348.00;5070546;28;20667;-63
2023/06/01 05:38:47;;;;;;;4.18;3.70;;;;;;;19.88;82.31;98366.09;5070690;28;20787;-63
2023/06/01 05:41:13;;;;;;;4.63;3.92;;;;;;;19.62;82.94;98320.78;5070421;28;20737;-63
2023/06/01 05:43:38;;;;;;;6.28;3.97;;;;;;;20.11;81.76;98396.00;5056008;28;20189;-63
2023/06/01 05:46:04;;;;;;;4.95;4.40;;;;;;;19.98;81.26;98380.69;5050336;28;20255;-63
2023/06/01 05:48:30;;;;;;;4.53;4.10;;;;;;;20.00;80.54;98357.69;5050415;28;20176;-63
2023/06/01 05:50:55;;;;;;;3.83;3.50;;;;;;;20.17;79.50;98355.94;5050562;28;20272;-63
2023/06/01 05:53:24;;;;;;;5.80;4.20;;;;;;;20.15;78.56;98357.88;5050305;28;20272;-63
2023/06/01 05:55:50;;;;;;;4.80;3.67;;;;;;;20.36;79.17;98363.44;5066550;28;20245;-63
2023/06/01 05:58:16;;;;;;;4.88;4.00;;;;;;;20.56;78.44;98401.50;5072579;28;20263;-63
2023/06/01 06:00:41;;;;;;;6.55;4.28;;;;;;;20.06;78.25;98308.94;5072386;28;20603;-63
2023/06/01 06:03:07;;;;;;;7.38;3.88;;;;;;;20.63;78.10;98389.34;5072422;28;20219;-63
2023/06/01 06:05:32;;;;;;;6.20;4.18;;;;;;;20.51;78.16;98367.03;5072074;28;20204;-64
2023/06/01 06:07:57;;;;;;;6.00;3.83;;;;;;;20.78;77.41;98395.53;5072382;28;20259;-63
2023/06/01 06:10:24;;;;;;;5.20;3.75;;;;;;;20.46;76.63;98329.91;5072285;28;20197;-63
2023/06/01 06:12:50;;;;;;;6.97;3.67;;;;;;;20.61;76.68;98321.16;5072022;28;20180;-63
2023/06/01 06:15:16;;;;;;;6.40;3.72;;;;;;;20.91;75.69;98357.22;5072274;28;20180;-63
2023/06/01 06:17:42;;;;;;;4.30;3.83;;;;;;;20.79;75.56;98318.28;5072246;28;20661;-63
2023/06/01 06:20:08;;;;;;;4.72;4.15;;;;;;;20.87;75.26;98319.06;5072247;28;20243;-63
2023/06/01 06:22:34;;;;;;;5.10;3.72;;;;;;;21.36;74.42;98385.47;5072435;28;20180;-63
2023/06/01 06:24:59;;;;;;;8.98;3.80;;;;;;;21.27;72.98;98378.63;5072048;28;20201;-63
2023/06/01 06:27:25;;;;;;;5.80;4.15;;;;;;;21.06;74.16;98328.38;5072104;28;20176;-63
2023/06/01 06:29:50;;;;;;;3.90;3.53;;;;;;;21.26;74.27;98353.25;5072244;28;20221;-63
2023/06/01 06:32:16;;;;;;;6.97;4.65;;;;;;;21.60;75.10;98393.22;5072342;28;20665;-64
2023/06/01 06:34:41;;;;;;;11.23;4.57;;;;;;;21.60;75.97;98369.50;5072048;28;20171;-63
2023/06/01 06:37:07;;;;;;;8.00;4.68;;;;;;;21.52;75.88;98333.53;5071936;28;20184;-63
2023/06/01 06:39:33;;;;;;;15.07;5.65;;;;;;;21.64;75.89;98326.03;5072020;28;20175;-63
2023/06/01 06:42:00;;;;;;;9.27;4.40;;;;;;;21.82;73.71;98335.31;5071888;28;20176;-64
2023/06/01 06:44:26;;;;;;;6.05;4.72;;;;;;;22.34;73.18;98393.34;5071925;28;20169;-63
2023/06/01 06:46:52;;;;;;;5.70;5.13;;;;;;;22.49;73.24;98402.13;5089399;28;20215;-63
2023/06/01 06:49:18;;;;;;;6.65;4.97;;;;;;;22.54;73.30;98397.13;5089620;28;20190;-64
2023/06/01 06:51:44;;;;;;;5.10;4.43;;;;;;;22.54;73.83;98397.94;5089584;28;20187;-64
2023/06/01 06:54:09;;;;;;;9.48;5.10;;;;;;;22.68;73.23;98406.88;5089559;28;20782;-64
2023/06/01 06:56:34;;;;;;;11.25;4.85;;;;;;;22.30;73.47;98341.94;5089538;28;20199;-64
2023/06/01 06:59:00;;;;;;;8.05;5.35;;;;;;;22.54;73.40;98354.91;5089810;28;20176;-64
2023/06/01 07:01:39;;;;;;;7.18;4.72;;;;;;;22.90;74.02;98411.25;5089295;28;20228;-64
2023/06/01 07:04:05;;;;;;;6.20;5.00;;;;;;;22.56;73.60;98334.47;5089590;28;20209;-64
2023/06/01 07:06:32;;;;;;;8.00;5.50;;;;;;;22.63;73.28;98340.66;5089352;28;20288;-64
2023/06/01 07:08:58;;;;;;;5.53;4.93;;;;;;;23.00;73.39;98398.59;5089447;28;20175;-64
2023/06/01 07:11:23;;;;;;;10.77;9.35;;;;;;;23.10;74.74;98413.16;5089410;28;20198;-64
2023/06/01 07:13:49;;;;;;;10.82;6.57;;;;;;;22.71;75.21;98337.91;5089411;28;20176;-64
2023/06/01 07:16:14;;;;;;;8.50;6.30;;;;;;;23.14;75.97;98398.56;5089344;28;20184;-64
2023/06/01 07:18:40;;;;;;;8.20;5.13;;;;;;;22.83;75.04;98339.91;5074149;28;20181;-64
2023/06/01 07:21:05;;;;;;;9.90;5.68;;;;;;;23.15;74.40;98376.47;5071609;28;20184;-64
2023/06/01 07:23:31;;;;;;;13.95;6.38;;;;;;;23.31;74.75;98401.88;5071547;28;20183;-64
2023/06/01 07:25:56;;;;;;;9.02;5.90;;;;;;;23.07;74.64;98358.09;5071408;28;20204;-64
2023/06/01 07:28:25;;;;;;;12.20;6.47;;;;;;;23.28;74.70;98378.47;5071509;28;20172;-64
2023/06/01 07:30:51;;;;;;;16.52;7.22;;;;;;;23.36;75.41;98391.59;5071478;28;20177;-64
2023/06/01 07:33:17;;;;;;;14.77;6.40;;;;;;;23.12;75.70;98339.88;5071449;28;20195;-64
2023/06/01 07:35:43;;;;;;;12.05;6.85;;;;;;;23.12;75.76;98331.13;5071725;28;20176;-64
2023/06/01 07:38:09;;;;;;;13.18;6.45;;;;;;;23.20;75.05;98331.06;5071353;28;20173;-64
2023/06/01 07:40:35;;;;;;;8.55;7.10;;;;;;;23.69;75.14;98404.16;5071436;28;20187;-64
2023/06/01 07:43:00;;;;;;;15.40;6.72;;;;;;;23.33;74.08;98334.66;5073657;28;20211;-64
2023/06/01 07:45:26;;;;;;;8.95;5.97;;;;;;;23.51;73.33;98358.84;5075024;28;20228;-64
2023/06/01 07:47:53;;;;;;;10.88;5.47;;;;;;;23.39;73.58;98359.50;5074774;28;20176;-64
2023/06/01 07:50:19;;;;;;;9.00;5.13;;;;;;;23.25;73.61;98363.00;5074964;28;20263;-64
2023/06/01 07:52:45;;;;;;;9.32;5.47;;;;;;;22.99;74.80;98320.41;5075263;28;20172;-64
2023/06/01 07:55:11;;;;;;;6.75;5.45;;;;;;;23.59;74.75;98395.69;5074889;28;20203;-64
2023/06/01 07:57:36;;;;;;;10.57;5.20;;;;;;;23.42;74.36;98348.59;5074872;28;20211;-64
2023/06/01 08:00:07;;;;;;;7.82;5.28;;;;;;;23.44;73.22;98325.44;5074884;28;20199;-64
2023/06/01 08:02:33;;;;;;;9.05;5.78;;;;;;;23.49;73.45;98317.78;5074774;28;20267;-64
2023/06/01 08:04:59;;;;;;;8.13;5.78;;;;;;;23.58;72.58;98332.47;5074659;28;20292;-64
2023/06/01 08:07:27;;;;;;;8.43;5.57;;;;;;;23.67;69.84;98321.63;5074705;28;20168;-64
2023/06/01 08:09:53;;;;;;;9.95;5.53;;;;;;;23.83;68.94;98332.72;5074608;28;20176;-64
2023/06/01 08:12:18;;;;;;;7.35;5.43;;;;;;;24.05;69.70;98370.56;5074855;28;20256;-64
2023/06/01 08:14:44;;;;;;;8.05;5.10;;;;;;;23.72;69.68;98315.75;5074557;28;20200;-64
2023/06/01 08:17:11;;;;;;;5.82;5.03;;;;;;;23.81;70.01;98329.44;5074526;28;20673;-64
2023/06/01 08:19:37;;;;;;;9.98;5.50;;;;;;;24.13;69.64;98369.63;5074439;28;20176;-64
2023/06/01 08:22:04;;;;;;;5.22;4.80;;;;;;;24.13;69.35;98361.69;5074445;28;20597;-64
2023/06/01 08:24:32;;;;;;;10.98;5.40;;;;;;;24.08;69.97;98352.50;5074415;28;20177;-63
2023/06/01 08:26:57;;;;;;;5.95;4.65;;;;;;;24.17;70.12;98346.06;5074329;28;20176;-64
2023/06/01 08:29:23;;;;;;;8.40;5.75;;;;;;;24.20;68.97;98382.69;5074277;28;20168;-64
2023/06/01 08:31:49;;;;;;;11.50;5.80;;;;;;;23.72;69.86;98324.47;5074244;28;20225;-64
2023/06/01 08:34:14;;;;;;;8.60;4.85;;;;;;;24.17;69.64;98379.63;5074253;28;20168;-64
2023/06/01 08:36:39;;;;;;;9.50;4.95;;;;;;;24.02;68.37;98345.31;5074154;28;20259;-64
2023/06/01 08:39:25;;;;;;;10.07;5.10;;;;;;;24.20;68.16;98377.41;5074120;28;20245;-63
2023/06/01 08:42:09;;;;;;;4.78;4.38;;;;;;;23.77;68.72;98308.09;5074136;28;20207;-63
2023/06/01 08:44:43;;;;;;;5.90;5.05;;;;;;;23.81;65.13;98308.31;5074031;28;20211;-64
2023/06/01 08:47:09;;;;;;;8.98;5.13;;;;;;;23.91;67.42;98300.09;5073984;28;20176;-64
2023/06/01 08:49:36;;;;;;;8.60;4.75;;;;;;;24.26;67.10;98366.06;5074183;28;20176;-64
2023/06/01 08:52:11;;;;;;;5.95;4.47;;;;;;;24.02;67.07;98333.13;5073892;28;20180;-64
2023/06/01 08:54:37;;;;;;;8.95;4.68;;;;;;;24.03;67.48;98315.22;5072667;28;20176;-64
2023/06/01 08:57:04;;;;;;;8.75;4.68;;;;;;;24.32;66.30;98344.13;5073774;28;20251;-63
2023/06/01 08:59:30;;;;;;;7.28;4.00;;;;;;;24.44;66.22;98347.88;5073688;28;20176;-64
2023/06/01 09:01:57;;;;;;;8.68;5.47;;;;;;;24.13;64.11;98285.00;5073812;28;20200;-64
2023/06/01 09:04:23;;;;;;;7.63;4.43;;;;;;;24.34;65.06;98320.97;5073612;28;20232;-64
2023/06/01 09:06:48;;;;;;;11.32;4.68;;;;;;;24.33;64.06;98289.41;5073501;28;20287;-64
2023/06/01 09:09:14;;;;;;;8.15;4.68;;;;;;;24.63;63.49;98315.47;5073526;28;20259;-64
2023/06/01 09:11:40;;;;;;;11.52;4.70;;;;;;;24.75;63.12;98340.38;5073446;28;20188;-64
2023/06/01 09:14:22;;;;;;;11.88;4.38;;;;;;;24.91;63.54;98337.38;5073402;28;20180;-64
2023/06/01 09:16:48;;;;;;;5.40;4.10;;;;;;;24.90;59.11;98343.69;5073066;28;20776;-64
2023/06/01 09:19:13;;;;;;;5.78;3.97;;;;;;;24.76;59.29;98312.06;5073346;28;20260;-64
2023/06/01 09:21:39;;;;;;;5.85;4.25;;;;;;;24.89;58.24;98334.13;5073270;28;20179;-64
2023/06/01 09:24:18;;;;;;;4.18;3.78;;;;;;;24.67;58.41;98311.41;5070870;28;20279;-64
2023/06/01 09:26:50;;;;;;;6.18;4.32;;;;;;;24.85;60.16;98314.34;5070695;28;20325;-64
2023/06/01 09:29:16;;;;;;;9.35;4.30;;;;;;;24.70;58.35;98276.63;5070808;28;20717;-64
2023/06/01 09:31:46;;;;;;;3.78;3.25;;;;;;;24.80;55.78;98284.19;5070707;28;20181;-63
2023/06/01 09:34:18;;;;;;;7.35;3.38;;;;;;;25.03;55.20;98311.97;5070677;28;20268;-64
2023/06/01 09:36:54;;;;;;;5.30;3.15;;;;;;;24.83;55.67;98274.03;5070746;28;20223;-64
2023/06/01 09:39:22;;;;;;;4.07;3.42;;;;;;;25.02;54.58;98297.09;5070554;28;20180;-64
2023/06/01 09:41:58;;;;;;;5.15;3.65;;;;;;;25.00;55.32;98267.38;5070438;28;20565;-63
2023/06/01 09:44:28;;;;;;;5.93;3.63;;;;;;;25.44;54.23;98338.44;5070463;28;20231;-64
2023/06/01 09:47:09;;;;;;;5.05;3.05;;;;;;;25.55;53.11;98332.56;5070355;28;20750;-64
2023/06/01 09:49:37;;;;;;;3.63;3.08;;;;;;;25.53;53.21;98303.59;5070365;28;20226;-64
2023/06/01 09:52:05;;;;;;;4.80;3.30;;;;;;;25.90;50.51;98337.50;5070289;28;20207;-64
2023/06/01 09:54:40;;;;;;;4.50;3.22;;;;;;;25.66;50.81;98287.69;5070734;28;20180;-64
2023/06/01 09:57:07;;;;;;;4.35;3.50;;;;;;;25.84;51.27;98317.06;5072655;28;20172;-64
2023/06/01 09:59:44;;;;;;;4.97;4.50;;;;;;;25.95;50.97;98329.75;5072579;28;20172;-64
2023/06/01 10:02:18;;;;;;;4.57;3.33;;;;;;;25.84;48.69;98332.19;5072572;28;20257;-64
2023/06/01 10:04:55;;;;;;;6.82;3.42;;;;;;;25.49;50.16;98281.16;5071994;28;20173;-64
2023/06/01 10:07:23;;;;;;;3.83;3.45;;;;;;;25.87;48.02;98327.28;5072361;28;20203;-63
2023/06/01 10:09:51;;;;;;;3.65;2.95;;;;;;;25.58;48.16;98256.09;5072311;28;20249;-64
2023/06/01 10:12:17;;;;;;;3.42;3.08;;;;;;;26.27;48.42;98321.00;5072369;28;20235;-64
2023/06/01 10:14:42;;;;;;;6.47;3.53;;;;;;;26.26;47.86;98314.06;5072286;28;20643;-64
2023/06/01 10:17:09;;;;;;;5.00;3.30;;;;;;;26.00;48.31;98278.78;5072305;28;20259;-64
2023/06/01 10:19:37;;;;;;;5.13;3.22;;;;;;;25.94;47.68;98274.31;5072240;28;20237;-64
2023/06/01 10:22:03;;;;;;;6.10;3.42;;;;;;;25.94;47.32;98272.44;5072249;28;20382;-64
2023/06/01 10:24:29;;;;;;;4.55;3.20;;;;;;;26.29;47.87;98297.72;5072261;28;20292;-64
2023/06/01 10:27:05;;;;;;;4.22;3.17;;;;;;;26.37;47.81;98320.56;5071799;28;20628;-64
2023/06/01 10:29:31;;;;;;;4.45;3.45;;;;;;;26.06;47.62;98262.84;5072201;28;20308;-64
2023/06/01 10:31:57;;;;;;;7.50;3.75;;;;;;;26.44;47.38;98293.00;5089727;28;20183;-64
2023/06/01 10:34:44;;;;;;;3.90;3.10;;;;;;;26.48;47.33;98269.50;5089837;28;20187;-64
2023/06/01 10:37:14;;;;;;;9.00;3.35;;;;;;;26.53;47.91;98267.84;5089753;28;20188;-64
2023/06/01 10:39:40;;;;;;;5.35;3.22;;;;;;;26.73;48.00;98266.00;5089806;28;20171;-64
2023/06/01 10:42:14;;;;;;;4.70;3.28;;;;;;;27.11;45.39;98306.66;5089729;28;20571;-64
2023/06/01 10:44:40;;;;;;;3.10;2.90;;;;;;;27.24;45.59;98289.88;5089691;28;20186;-64
2023/06/01 10:47:11;;;;;;;3.58;3.28;;;;;;;27.55;45.15;98288.06;5089641;28;20180;-64
2023/06/01 10:49:48;;;;;;;5.43;3.20;;;;;;;27.66;43.52;98290.03;5089664;28;20183;-64
2023/06/01 10:52:35;;;;;;;3.95;3.15;;;;;;;27.84;44.73;98287.47;5089606;28;20184;-64
2023/06/01 10:55:07;;;;;;;3.75;3.40;;;;;;;27.92;44.71;98273.88;5089680;28;20179;-64
2023/06/01 10:57:45;;;;;;;4.90;3.38;;;;;;;27.73;45.49;98213.66;5089576;28;20241;-64
2023/06/01 11:00:21;;;;;;;5.97;3.30;;;;;;;28.02;43.00;98282.19;5089448;28;20191;-64
2023/06/01 11:03:01;;;;;;;3.25;3.00;;;;;;;28.22;43.78;98280.16;5081756;28;20194;-64
2023/06/01 11:05:39;;;;;;;5.35;3.33;;;;;;;28.21;43.03;98267.88;5071361;28;20579;-64
2023/06/01 11:08:06;;;;;;;4.15;3.30;;;;;;;28.15;43.00;98265.28;5071627;28;20190;-64
2023/06/01 11:10:50;;;;;;;5.32;3.28;;;;;;;28.19;42.87;98259.31;5071669;28;20165;-63
2023/06/01 11:13:18;;;;;;;7.90;3.22;;;;;;;28.44;42.45;98268.06;5071641;28;20549;-64
2023/06/01 11:16:09;;;;;;;3.88;3.00;;;;;;;28.60;42.27;98264.00;5071595;28;20640;-64
2023/06/01 11:18:41;;;;;;;3.33;3.10;;;;;;;28.73;42.12;98267.34;5074662;28;20553;-63
2023/06/01 11:21:18;;;;;;;4.18;2.80;;;;;;;28.82;40.58;98258.03;5093586;28;20617;-63
2023/06/01 11:23:47;;;;;;;3.30;2.97;;;;;;;28.28;41.09;98194.09;5093424;28;20701;-63
2023/06/01 11:26:18;;;;;;;5.50;3.20;;;;;;;28.63;41.84;98248.41;5093260;28;20291;-63
2023/06/01 11:28:48;;;;;;;4.82;3.22;;;;;;;28.77;40.61;98251.72;5093282;28;20186;-63
2023/06/01 11:31:17;;;;;;;3.05;2.75;;;;;;;28.88;40.88;98254.47;5093333;28;20562;-63
2023/06/01 11:33:51;;;;;;;6.38;3.00;;;;;;;28.89;39.79;98213.44;5093274;28;20611;-63